Terminal Aerodrome Forecast
Issued by NWS Sterling, VA

Home | Current Version | Previous Version | Text Only | Print | Product List | Glossary On
Versions: 1 2 3 4 5 6 7 8 9 10 11 12 13 14 15 16 17 18 19 20
000
FTUS41 KLWX 140000 AAA
TAFMRB
TAF AMD
KMRB 140037Z 1401/1424 15004KT P6SM -RA SCT021 BKN100 OVC120
     FM140200 23008KT 6SM -TSRA BKN040CB
     FM140400 21005KT P6SM VCTS BKN050CB
     FM140900 00000KT 3SM BR BKN120
     FM141300 VRB03KT P6SM BKN060
     FM141800 24008KT 3SM SHRA VCTS BKN060CB=

USA.gov is the U.S. government's official web portal to all federal, state and local government web resources and services.